Time;durP1;ratioP1;P1;durP2;ratioP2;P2;SDS_P1;SDS_P2;PMS_P1;PMS_P2;Temp;Humidity;BMP_temperature;BMP_pressure;BME280_temperature;BME280_humidity;BME280_pressure;Samples;Min_cycle;Max_cycle;Signal;HPM_P1;HPM_P2
2023/04/22 00:01:31;;;;;;;22.70;17.25;;;;;;;;;;5058415;28;20367;-72
2023/04/22 00:03:56;;;;;;;24.98;18.70;;;;;;;;;;5042064;28;20101;-70
2023/04/22 00:06:21;;;;;;;25.67;19.08;;;;;;;;;;5040171;28;20037;-72
2023/04/22 00:08:48;;;;;;;25.77;18.05;;;;;;;;;;5059675;28;20586;-73
2023/04/22 00:11:13;;;;;;;30.80;20.42;;;;;;;;;;5058945;28;20046;-74
2023/04/22 00:13:39;;;;;;;31.58;21.60;;;;;;;;;;5061954;28;20035;-73
2023/04/22 00:16:04;;;;;;;42.90;28.95;;;;;;;;;;5056448;28;20532;-72
2023/04/22 00:18:29;;;;;;;43.75;28.98;;;;;;;;;;5060595;28;20570;-72
2023/04/22 00:20:55;;;;;;;42.05;28.23;;;;;;;;;;5056141;28;20036;-74
2023/04/22 00:23:20;;;;;;;41.03;27.13;;;;;;;;;;5042276;28;20028;-73
2023/04/22 00:25:45;;;;;;;41.17;26.77;;;;;;;;;;5058062;28;20040;-73
2023/04/22 00:28:11;;;;;;;49.83;31.13;;;;;;;;;;5058578;28;20028;-73
2023/04/22 00:30:36;;;;;;;45.30;29.90;;;;;;;;;;5058507;28;20032;-72
2023/04/22 00:33:01;;;;;;;45.88;29.00;;;;;;;;;;5059602;28;20279;-72
2023/04/22 00:35:27;;;;;;;43.05;30.40;;;;;;;;;;5057855;28;20126;-72
2023/04/22 00:37:55;;;;;;;44.70;30.80;;;;;;;;;;5059191;28;20554;-72
2023/04/22 00:40:21;;;;;;;47.60;34.33;;;;;;;;;;5057551;28;20523;-72
2023/04/22 00:42:48;;;;;;;54.90;36.80;;;;;;;;;;5059055;28;20040;-73
2023/04/22 00:45:14;;;;;;;57.47;37.85;;;;;;;;;;5054753;28;20125;-73
2023/04/22 00:47:40;;;;;;;60.22;38.42;;;;;;;;;;5058672;28;20044;-75
2023/04/22 00:50:06;;;;;;;52.92;36.35;;;;;;;;;;5057422;28;20316;-73
2023/04/22 00:52:33;;;;;;;52.05;34.38;;;;;;;;;;5058988;28;20036;-73
2023/04/22 00:54:59;;;;;;;56.92;37.50;;;;;;;;;;5037243;28;20048;-73
2023/04/22 00:57:25;;;;;;;55.92;37.75;;;;;;;;;;5055781;28;20047;-71
2023/04/22 00:59:51;;;;;;;58.70;37.17;;;;;;;;;;5036916;28;20612;-72
2023/04/22 01:02:17;;;;;;;56.85;38.47;;;;;;;;;;5057844;28;20504;-73
2023/04/22 01:04:42;;;;;;;60.28;39.05;;;;;;;;;;5060570;28;20047;-73
2023/04/22 01:07:10;;;;;;;61.03;38.35;;;;;;;;;;5060262;28;20091;-73
2023/04/22 01:09:35;;;;;;;58.53;38.85;;;;;;;;;;5056465;28;20269;-75
2023/04/22 01:12:03;;;;;;;56.17;37.65;;;;;;;;;;5043201;28;20043;-75
2023/04/22 01:14:28;;;;;;;58.92;36.80;;;;;;;;;;5058797;28;20062;-73
2023/04/22 01:16:54;;;;;;;54.70;35.67;;;;;;;;;;5058402;28;20542;-73
2023/04/22 01:19:22;;;;;;;52.38;35.33;;;;;;;;;;5041017;28;21962;-71
2023/04/22 01:21:49;;;;;;;53.85;36.05;;;;;;;;;;5057206;28;20698;-74
2023/04/22 01:24:17;;;;;;;57.20;36.47;;;;;;;;;;5056650;28;20028;-71
2023/04/22 01:26:42;;;;;;;48.40;32.08;;;;;;;;;;5018504;28;20036;-72
2023/04/22 01:29:10;;;;;;;47.47;31.65;;;;;;;;;;5039569;28;22156;-73
2023/04/22 01:31:35;;;;;;;48.13;32.83;;;;;;;;;;5033779;28;20429;-73
2023/04/22 01:34:01;;;;;;;54.22;35.47;;;;;;;;;;5059147;28;20024;-72
2023/04/22 01:36:26;;;;;;;51.67;33.45;;;;;;;;;;5058919;28;20052;-74
2023/04/22 01:38:52;;;;;;;52.58;34.13;;;;;;;;;;5044727;28;20036;-75
2023/04/22 01:41:17;;;;;;;57.92;36.35;;;;;;;;;;5046311;28;20091;-75
2023/04/22 01:43:45;;;;;;;59.80;36.55;;;;;;;;;;5040956;28;20553;-73
2023/04/22 01:46:10;;;;;;;57.47;37.15;;;;;;;;;;5057720;28;20048;-73
2023/04/22 01:48:36;;;;;;;56.55;39.35;;;;;;;;;;5055490;28;20169;-73
2023/04/22 01:51:02;;;;;;;59.97;39.20;;;;;;;;;;5022337;28;20096;-73
2023/04/22 01:53:27;;;;;;;60.72;36.88;;;;;;;;;;5044366;28;20403;-74
2023/04/22 01:55:54;;;;;;;62.45;41.17;;;;;;;;;;5058980;28;20044;-75
2023/04/22 01:58:20;;;;;;;57.25;36.65;;;;;;;;;;5062147;28;20036;-72
2023/04/22 02:00:46;;;;;;;57.33;37.40;;;;;;;;;;5062129;28;20043;-73
2023/04/22 02:03:11;;;;;;;57.00;37.17;;;;;;;;;;5041973;28;20036;-71
2023/04/22 02:05:37;;;;;;;58.88;39.15;;;;;;;;;;5038407;28;20060;-73
2023/04/22 02:08:02;;;;;;;59.80;38.45;;;;;;;;;;5061642;28;20031;-72
2023/04/22 02:10:30;;;;;;;63.67;39.22;;;;;;;;;;5060588;28;20335;-72
2023/04/22 02:12:55;;;;;;;63.78;40.95;;;;;;;;;;5062005;28;20121;-72
2023/04/22 02:15:21;;;;;;;62.45;39.05;;;;;;;;;;5063601;28;20044;-74
2023/04/22 02:17:51;;;;;;;60.20;39.65;;;;;;;;;;5042703;28;20043;-74
2023/04/22 02:20:17;;;;;;;63.22;40.42;;;;;;;;;;5031273;28;20678;-73
2023/04/22 02:22:45;;;;;;;56.53;38.05;;;;;;;;;;5038565;28;20335;-74
2023/04/22 02:25:12;;;;;;;57.67;38.03;;;;;;;;;;5059464;28;20046;-73
2023/04/22 02:27:38;;;;;;;59.80;38.72;;;;;;;;;;5061775;28;20288;-73
2023/04/22 02:30:03;;;;;;;61.83;36.35;;;;;;;;;;5060355;28;20044;-74
2023/04/22 02:32:29;;;;;;;68.75;42.35;;;;;;;;;;5060584;28;20036;-73
2023/04/22 02:34:54;;;;;;;64.18;38.83;;;;;;;;;;5060263;28;20040;-72
2023/04/22 02:37:22;;;;;;;64.55;41.10;;;;;;;;;;5060896;28;21104;-73
2023/04/22 02:39:50;;;;;;;69.22;41.80;;;;;;;;;;5062716;28;20107;-73
2023/04/22 02:42:18;;;;;;;66.90;41.35;;;;;;;;;;5062735;28;20507;-73
2023/04/22 02:44:43;;;;;;;63.55;39.33;;;;;;;;;;5043146;28;20036;-74
2023/04/22 02:47:08;;;;;;;61.88;38.95;;;;;;;;;;5059348;28;20093;-74
2023/04/22 02:49:33;;;;;;;63.85;40.72;;;;;;;;;;5038804;28;20119;-73
2023/04/22 02:51:59;;;;;;;59.53;38.60;;;;;;;;;;5061646;28;20093;-73
2023/04/22 02:54:24;;;;;;;64.55;40.25;;;;;;;;;;5026643;28;20129;-74
2023/04/22 02:56:49;;;;;;;65.25;40.28;;;;;;;;;;5056624;28;20497;-72
2023/04/22 02:59:15;;;;;;;69.78;41.58;;;;;;;;;;5058243;28;20036;-75
2023/04/22 03:01:40;;;;;;;70.63;41.80;;;;;;;;;;5056726;28;20076;-75
2023/04/22 03:04:05;;;;;;;76.15;45.50;;;;;;;;;;5058905;28;20121;-73
2023/04/22 03:06:31;;;;;;;69.40;43.97;;;;;;;;;;5059799;28;20592;-73
2023/04/22 03:08:59;;;;;;;72.63;43.95;;;;;;;;;;5047789;28;20562;-74
2023/04/22 03:11:26;;;;;;;69.20;42.60;;;;;;;;;;5061186;28;20040;-74
2023/04/22 03:13:54;;;;;;;71.28;42.88;;;;;;;;;;5061756;28;20036;-73
2023/04/22 03:16:21;;;;;;;69.13;43.67;;;;;;;;;;5045291;28;20066;-73
2023/04/22 03:18:46;;;;;;;77.43;44.47;;;;;;;;;;5059381;28;20484;-73
2023/04/22 03:21:12;;;;;;;71.53;44.88;;;;;;;;;;5061298;28;20047;-74
2023/04/22 03:23:37;;;;;;;77.95;45.80;;;;;;;;;;5038108;28;20036;-73
2023/04/22 03:26:02;;;;;;;77.13;45.15;;;;;;;;;;5043417;28;20400;-73
2023/04/22 03:28:27;;;;;;;75.55;43.75;;;;;;;;;;5057664;28;20036;-73
2023/04/22 03:30:53;;;;;;;77.03;45.38;;;;;;;;;;5059606;28;20180;-74
2023/04/22 03:33:21;;;;;;;80.72;46.45;;;;;;;;;;5060825;28;20036;-74
2023/04/22 03:35:48;;;;;;;81.47;46.72;;;;;;;;;;5048815;28;20047;-73
2023/04/22 03:38:13;;;;;;;84.47;48.85;;;;;;;;;;5059384;28;20120;-73
2023/04/22 03:40:38;;;;;;;83.95;48.75;;;;;;;;;;5044394;28;20036;-75
2023/04/22 03:43:03;;;;;;;87.68;49.95;;;;;;;;;;5059046;28;20117;-73
2023/04/22 03:45:29;;;;;;;85.00;48.35;;;;;;;;;;5040251;28;22003;-74
2023/04/22 03:47:54;;;;;;;83.30;47.15;;;;;;;;;;5060355;28;20036;-74
2023/04/22 03:50:25;;;;;;;82.75;47.75;;;;;;;;;;5034173;28;20040;-74
2023/04/22 03:52:51;;;;;;;86.70;48.08;;;;;;;;;;5059898;28;20040;-73
2023/04/22 03:55:16;;;;;;;82.28;47.50;;;;;;;;;;5059934;28;20051;-74
2023/04/22 03:57:43;;;;;;;87.20;48.47;;;;;;;;;;5057690;28;20035;-74
2023/04/22 04:00:11;;;;;;;79.55;45.13;;;;;;;;;;5037461;28;20040;-73
2023/04/22 04:02:36;;;;;;;82.80;48.08;;;;;;;;;;5034873;28;20135;-72
2023/04/22 04:05:02;;;;;;;85.55;49.42;;;;;;;;;;5056414;28;20036;-73
2023/04/22 04:07:29;;;;;;;84.45;48.50;;;;;;;;;;5057245;28;20055;-72
2023/04/22 04:09:54;;;;;;;87.25;48.13;;;;;;;;;;5038176;28;20413;-72
2023/04/22 04:12:22;;;;;;;81.45;47.05;;;;;;;;;;5058250;28;20062;-73
2023/04/22 04:14:51;;;;;;;76.53;46.38;;;;;;;;;;5057854;28;20477;-73
2023/04/22 04:17:17;;;;;;;83.20;48.28;;;;;;;;;;5048384;28;20059;-74
2023/04/22 04:19:42;;;;;;;82.88;47.67;;;;;;;;;;5057990;28;20229;-73
2023/04/22 04:22:08;;;;;;;85.07;48.03;;;;;;;;;;5057840;28;21935;-71
2023/04/22 04:24:35;;;;;;;80.13;47.13;;;;;;;;;;5056178;28;20064;-73
2023/04/22 04:27:03;;;;;;;81.50;45.72;;;;;;;;;;5062209;28;20037;-72
2023/04/22 04:29:28;;;;;;;82.72;45.78;;;;;;;;;;5035431;28;20043;-73
2023/04/22 04:31:54;;;;;;;84.85;45.67;;;;;;;;;;5039209;28;20040;-71
2023/04/22 04:34:21;;;;;;;77.20;45.65;;;;;;;;;;5056209;28;20040;-72
2023/04/22 04:36:49;;;;;;;79.68;47.17;;;;;;;;;;5059223;28;20164;-71
2023/04/22 04:39:18;;;;;;;82.35;47.00;;;;;;;;;;5060911;28;20032;-72
2023/04/22 04:41:43;;;;;;;80.50;45.67;;;;;;;;;;5031656;28;20661;-74
2023/04/22 04:44:10;;;;;;;84.57;49.70;;;;;;;;;;5057916;28;20039;-74
2023/04/22 04:46:37;;;;;;;83.20;47.65;;;;;;;;;;5056125;28;20504;-73
2023/04/22 04:49:03;;;;;;;88.35;49.95;;;;;;;;;;5058272;28;20122;-73
2023/04/22 04:51:31;;;;;;;87.30;48.83;;;;;;;;;;5059534;28;20036;-73
2023/04/22 04:53:58;;;;;;;83.63;48.53;;;;;;;;;;5047611;28;20032;-73
2023/04/22 04:56:26;;;;;;;78.15;45.67;;;;;;;;;;5064851;28;20074;-73
2023/04/22 04:58:51;;;;;;;77.13;45.08;;;;;;;;;;5069440;28;20039;-74
2023/04/22 05:01:16;;;;;;;76.15;46.15;;;;;;;;;;5028571;28;20036;-73
2023/04/22 05:03:44;;;;;;;78.97;44.13;;;;;;;;;;5059711;28;20036;-73
2023/04/22 05:06:09;;;;;;;77.28;44.50;;;;;;;;;;5058511;28;20056;-74
2023/04/22 05:08:35;;;;;;;72.30;43.53;;;;;;;;;;5063861;28;20127;-73
2023/04/22 05:11:00;;;;;;;71.15;43.45;;;;;;;;;;5034057;28;20175;-73
2023/04/22 05:13:26;;;;;;;72.78;44.60;;;;;;;;;;5036556;28;20662;-74
2023/04/22 05:15:54;;;;;;;66.78;43.25;;;;;;;;;;5058660;28;20044;-72
2023/04/22 05:18:19;;;;;;;74.45;45.20;;;;;;;;;;5057275;28;20461;-73
2023/04/22 05:20:44;;;;;;;76.45;45.53;;;;;;;;;;5055833;28;20032;-71
2023/04/22 05:23:10;;;;;;;73.40;43.53;;;;;;;;;;5021128;28;20598;-73
2023/04/22 05:25:35;;;;;;;71.40;43.28;;;;;;;;;;5015554;28;20555;-71
2023/04/22 05:28:00;;;;;;;72.78;44.00;;;;;;;;;;5039668;28;20044;-70
2023/04/22 05:30:26;;;;;;;70.25;43.20;;;;;;;;;;5035278;28;20048;-70
2023/04/22 05:32:53;;;;;;;66.80;41.33;;;;;;;;;;5055914;28;20127;-70
2023/04/22 05:35:21;;;;;;;67.15;42.03;;;;;;;;;;5059176;28;20159;-70
2023/04/22 05:37:46;;;;;;;69.80;43.25;;;;;;;;;;5057962;28;20154;-70
2023/04/22 05:40:11;;;;;;;68.15;43.42;;;;;;;;;;5057502;28;20472;-70
2023/04/22 05:42:36;;;;;;;69.65;43.92;;;;;;;;;;5059651;28;20040;-71
2023/04/22 05:45:02;;;;;;;60.25;40.55;;;;;;;;;;5028767;28;20040;-71
2023/04/22 05:47:29;;;;;;;61.45;40.63;;;;;;;;;;5057183;28;20040;-71
2023/04/22 05:49:54;;;;;;;61.55;39.70;;;;;;;;;;5062223;28;20040;-69
2023/04/22 05:52:19;;;;;;;60.92;40.10;;;;;;;;;;5040717;28;20050;-70
2023/04/22 05:54:44;;;;;;;62.17;39.45;;;;;;;;;;5059913;28;20041;-72
2023/04/22 05:57:12;;;;;;;62.08;38.75;;;;;;;;;;5061224;28;20064;-72
2023/04/22 05:59:37;;;;;;;62.05;38.35;;;;;;;;;;5060591;28;20037;-71
2023/04/22 06:02:03;;;;;;;56.63;37.00;;;;;;;;;;5043575;28;20625;-70
2023/04/22 06:04:28;;;;;;;57.20;37.80;;;;;;;;;;5058637;28;20590;-70
2023/04/22 06:06:55;;;;;;;56.67;36.97;;;;;;;;;;5021189;28;20389;-71
2023/04/22 06:09:21;;;;;;;57.08;36.00;;;;;;;;;;5037072;28;20031;-69
2023/04/22 06:11:46;;;;;;;53.92;35.85;;;;;;;;;;5061284;28;20191;-69
2023/04/22 06:14:12;;;;;;;56.25;36.95;;;;;;;;;;5061597;28;20056;-69
2023/04/22 06:16:38;;;;;;;51.10;34.65;;;;;;;;;;5041114;28;20906;-71
2023/04/22 06:19:03;;;;;;;49.15;33.72;;;;;;;;;;5059715;28;20048;-70
2023/04/22 06:21:31;;;;;;;51.22;34.55;;;;;;;;;;5037352;28;20055;-70
2023/04/22 06:23:56;;;;;;;54.47;36.63;;;;;;;;;;5055705;28;20028;-70
2023/04/22 06:26:22;;;;;;;55.67;38.60;;;;;;;;;;5055822;28;20058;-70
2023/04/22 06:28:47;;;;;;;59.83;38.90;;;;;;;;;;5038957;28;20036;-70
2023/04/22 06:31:12;;;;;;;54.30;37.50;;;;;;;;;;5038594;28;20040;-72
2023/04/22 06:33:37;;;;;;;54.60;38.35;;;;;;;;;;5060303;28;20040;-70
2023/04/22 06:36:03;;;;;;;47.53;33.58;;;;;;;;;;5022671;28;20359;-70
2023/04/22 06:38:29;;;;;;;43.72;31.35;;;;;;;;;;5047003;28;20187;-70
2023/04/22 06:40:54;;;;;;;42.83;32.00;;;;;;;;;;5063619;28;20055;-71
2023/04/22 06:43:19;;;;;;;42.00;31.08;;;;;;;;;;5061057;28;20075;-73
2023/04/22 06:45:45;;;;;;;42.88;31.05;;;;;;;;;;5057776;28;20484;-70
2023/04/22 06:48:10;;;;;;;40.60;29.88;;;;;;;;;;5060322;28;20319;-70
2023/04/22 06:50:35;;;;;;;41.45;30.10;;;;;;;;;;5037309;28;20050;-70
2023/04/22 06:53:00;;;;;;;41.03;28.98;;;;;;;;;;5059521;28;20056;-70
2023/04/22 06:55:26;;;;;;;40.65;29.33;;;;;;;;;;5057490;28;20076;-72
2023/04/22 06:57:51;;;;;;;36.80;26.38;;;;;;;;;;5041147;28;20416;-70
2023/04/22 07:00:16;;;;;;;34.20;25.02;;;;;;;;;;5037020;28;20040;-71
2023/04/22 07:02:44;;;;;;;31.73;22.83;;;;;;;;;;5057415;28;20040;-72
2023/04/22 07:05:10;;;;;;;28.33;22.77;;;;;;;;;;5058142;28;20607;-70
2023/04/22 07:07:35;;;;;;;35.15;25.58;;;;;;;;;;5060768;28;20275;-70
2023/04/22 07:10:00;;;;;;;37.03;27.75;;;;;;;;;;5036228;28;20047;-71
2023/04/22 07:12:26;;;;;;;35.17;27.92;;;;;;;;;;5061317;28;20082;-71
2023/04/22 07:14:53;;;;;;;36.17;28.67;;;;;;;;;;5057668;28;20582;-70
2023/04/22 07:17:21;;;;;;;35.78;28.10;;;;;;;;;;5038125;28;21876;-70
2023/04/22 07:19:48;;;;;;;37.00;27.58;;;;;;;;;;5058420;28;20463;-70
2023/04/22 07:22:14;;;;;;;36.80;27.58;;;;;;;;;;5058788;28;20552;-70
2023/04/22 07:24:39;;;;;;;36.50;27.60;;;;;;;;;;5039378;28;20126;-70
2023/04/22 07:27:05;;;;;;;34.72;25.92;;;;;;;;;;5058592;28;20489;-70
2023/04/22 07:29:32;;;;;;;35.30;26.50;;;;;;;;;;5059425;28;20032;-70
2023/04/22 07:31:58;;;;;;;31.63;24.92;;;;;;;;;;5036625;28;20028;-72
2023/04/22 07:34:25;;;;;;;36.28;26.58;;;;;;;;;;5057648;28;20032;-71
2023/04/22 07:36:51;;;;;;;39.15;25.73;;;;;;;;;;5044278;28;20047;-70
2023/04/22 07:39:16;;;;;;;32.67;24.83;;;;;;;;;;5060984;28;20044;-71
2023/04/22 07:41:41;;;;;;;31.02;23.77;;;;;;;;;;5057329;28;20037;-70
2023/04/22 07:44:09;;;;;;;29.42;22.30;;;;;;;;;;5058190;28;20046;-71
2023/04/22 07:46:34;;;;;;;31.20;23.45;;;;;;;;;;5057452;28;20104;-70
2023/04/22 07:48:59;;;;;;;30.45;23.77;;;;;;;;;;5058334;28;20063;-69
2023/04/22 07:51:25;;;;;;;29.85;22.73;;;;;;;;;;5057335;28;20044;-70
2023/04/22 07:53:52;;;;;;;29.80;23.17;;;;;;;;;;5058639;28;20813;-70
2023/04/22 07:56:17;;;;;;;28.60;24.10;;;;;;;;;;5058181;28;20051;-70
2023/04/22 07:58:45;;;;;;;27.08;22.58;;;;;;;;;;5059407;28;20195;-70
2023/04/22 08:01:10;;;;;;;29.05;21.48;;;;;;;;;;5036576;28;20031;-72
2023/04/22 08:03:35;;;;;;;27.63;21.40;;;;;;;;;;5057992;28;20040;-70
2023/04/22 08:06:03;;;;;;;26.50;21.83;;;;;;;;;;5056078;28;20132;-70
2023/04/22 08:08:30;;;;;;;32.75;23.20;;;;;;;;;;5041457;28;20117;-67
2023/04/22 08:10:55;;;;;;;29.63;21.98;;;;;;;;;;5057211;28;20226;-67
2023/04/22 08:13:21;;;;;;;25.50;20.13;;;;;;;;;;5039902;28;20032;-66
2023/04/22 08:15:46;;;;;;;25.42;20.60;;;;;;;;;;5032969;28;20447;-66
2023/04/22 08:18:11;;;;;;;23.88;20.60;;;;;;;;;;5041670;28;20058;-67
2023/04/22 08:20:37;;;;;;;24.17;20.75;;;;;;;;;;5056218;28;20036;-67
2023/04/22 08:23:05;;;;;;;24.20;20.73;;;;;;;;;;5044341;28;20040;-67
2023/04/22 08:25:31;;;;;;;23.77;21.15;;;;;;;;;;5055828;28;20052;-68
2023/04/22 08:27:58;;;;;;;23.63;19.88;;;;;;;;;;5055687;28;20047;-67
2023/04/22 08:30:24;;;;;;;22.85;20.25;;;;;;;;;;5056240;28;20036;-68
2023/04/22 08:32:51;;;;;;;22.80;19.85;;;;;;;;;;5054968;28;20036;-67
2023/04/22 08:35:17;;;;;;;22.45;19.23;;;;;;;;;;5038818;28;20226;-66
2023/04/22 08:37:42;;;;;;;21.55;19.27;;;;;;;;;;5057992;28;20037;-64
2023/04/22 08:40:08;;;;;;;22.80;19.98;;;;;;;;;;5054172;28;20043;-66
2023/04/22 08:42:33;;;;;;;24.00;19.98;;;;;;;;;;5053013;28;20059;-64
2023/04/22 08:44:58;;;;;;;23.02;20.13;;;;;;;;;;5035921;28;20862;-65
2023/04/22 08:47:24;;;;;;;22.90;19.85;;;;;;;;;;5058180;28;20047;-67
2023/04/22 08:49:50;;;;;;;21.27;19.05;;;;;;;;;;5038180;28;20070;-66
2023/04/22 08:52:15;;;;;;;23.00;20.42;;;;;;;;;;5056433;28;20646;-66
2023/04/22 08:54:40;;;;;;;23.00;20.52;;;;;;;;;;5057434;28;20148;-67
2023/04/22 08:57:07;;;;;;;23.38;19.83;;;;;;;;;;5047460;28;20119;-66
2023/04/22 08:59:32;;;;;;;22.13;19.73;;;;;;;;;;5055601;28;20033;-66
2023/04/22 09:02:01;;;;;;;25.65;21.05;;;;;;;;;;5040162;28;20036;-67
2023/04/22 09:04:26;;;;;;;22.52;20.17;;;;;;;;;;5054236;28;20085;-68
2023/04/22 09:06:54;;;;;;;23.45;21.00;;;;;;;;;;5062668;28;20040;-68
2023/04/22 09:09:25;;;;;;;26.05;22.20;;;;;;;;;;5060340;28;20071;-70
2023/04/22 09:11:50;;;;;;;24.23;20.65;;;;;;;;;;5056540;28;20489;-67
2023/04/22 09:14:15;;;;;;;23.05;20.55;;;;;;;;;;5059498;28;20040;-68
2023/04/22 09:16:45;;;;;;;25.08;21.48;;;;;;;;;;5062376;28;20044;-68
2023/04/22 09:19:12;;;;;;;22.45;20.13;;;;;;;;;;5060241;28;20055;-70
2023/04/22 09:21:38;;;;;;;22.30;19.98;;;;;;;;;;5037806;28;20096;-68
2023/04/22 09:24:05;;;;;;;24.52;20.30;;;;;;;;;;5058343;28;20350;-67
2023/04/22 09:26:31;;;;;;;23.02;20.52;;;;;;;;;;5060615;28;20048;-67
2023/04/22 09:28:59;;;;;;;23.23;20.70;;;;;;;;;;5048319;28;20188;-72
2023/04/22 09:31:28;;;;;;;20.80;18.55;;;;;;;;;;5059264;28;20514;-68
2023/04/22 09:33:55;;;;;;;21.83;18.58;;;;;;;;;;5060902;28;20196;-67
2023/04/22 09:36:22;;;;;;;20.48;18.05;;;;;;;;;;5061171;28;20730;-68
2023/04/22 09:38:52;;;;;;;23.38;20.35;;;;;;;;;;5044372;28;20388;-67
2023/04/22 09:41:24;;;;;;;21.55;19.25;;;;;;;;;;5059213;28;20043;-66
2023/04/22 09:43:50;;;;;;;19.75;17.30;;;;;;;;;;5060681;28;20277;-70
2023/04/22 09:46:18;;;;;;;20.38;17.73;;;;;;;;;;5058345;28;20036;-71
2023/04/22 09:48:46;;;;;;;21.02;17.77;;;;;;;;;;5046123;28;22170;-66
2023/04/22 09:51:17;;;;;;;20.63;18.40;;;;;;;;;;5058765;28;20036;-67
2023/04/22 09:53:43;;;;;;;20.50;17.33;;;;;;;;;;5057173;28;20336;-67
2023/04/22 09:56:08;;;;;;;20.95;17.48;;;;;;;;;;5061091;28;20092;-67
2023/04/22 09:58:37;;;;;;;20.45;17.88;;;;;;;;;;5060930;28;20153;-67
2023/04/22 10:01:03;;;;;;;23.63;19.30;;;;;;;;;;5058037;28;20032;-70
2023/04/22 10:03:28;;;;;;;25.30;19.83;;;;;;;;;;5059725;28;20105;-67
2023/04/22 10:05:53;;;;;;;23.35;19.30;;;;;;;;;;5060181;28;20497;-68
2023/04/22 10:08:18;;;;;;;25.67;21.15;;;;;;;;;;5058718;28;20035;-67
2023/04/22 10:10:44;;;;;;;27.20;21.80;;;;;;;;;;5037894;28;20037;-69
2023/04/22 10:13:09;;;;;;;31.30;23.38;;;;;;;;;;5044278;28;20036;-67
2023/04/22 10:15:41;;;;;;;27.55;22.60;;;;;;;;;;5038320;28;20306;-74
2023/04/22 10:18:08;;;;;;;28.83;22.60;;;;;;;;;;5060059;28;20047;-69
2023/04/22 10:20:36;;;;;;;30.23;23.67;;;;;;;;;;5041513;28;20107;-71
2023/04/22 10:23:03;;;;;;;29.80;23.95;;;;;;;;;;5041494;28;20104;-70
2023/04/22 10:25:28;;;;;;;29.98;23.52;;;;;;;;;;5057299;28;20040;-69
2023/04/22 10:28:01;;;;;;;29.65;23.33;;;;;;;;;;5059980;28;20378;-72
2023/04/22 10:30:27;;;;;;;29.77;23.52;;;;;;;;;;5058590;28;20081;-70
2023/04/22 10:32:52;;;;;;;32.22;24.00;;;;;;;;;;5057154;28;20236;-70
2023/04/22 10:35:25;;;;;;;30.45;24.63;;;;;;;;;;5057366;28;20061;-69
2023/04/22 10:37:51;;;;;;;29.90;24.88;;;;;;;;;;5058426;28;20062;-72
2023/04/22 10:40:17;;;;;;;27.25;21.98;;;;;;;;;;5059350;28;20039;-71
2023/04/22 10:42:49;;;;;;;28.83;23.73;;;;;;;;;;5042975;28;20846;-71
2023/04/22 10:45:15;;;;;;;30.08;23.92;;;;;;;;;;5040197;28;20032;-69
2023/04/22 10:47:41;;;;;;;29.35;24.20;;;;;;;;;;5061870;28;20688;-71
2023/04/22 10:50:17;;;;;;;29.58;23.50;;;;;;;;;;5058449;28;20067;-71
2023/04/22 10:52:44;;;;;;;28.60;23.33;;;;;;;;;;5059769;28;20043;-72
2023/04/22 10:55:12;;;;;;;29.55;24.30;;;;;;;;;;5039559;28;20092;-72
2023/04/22 10:57:40;;;;;;;31.45;25.73;;;;;;;;;;5058013;28;20085;-71
2023/04/22 11:00:21;;;;;;;32.38;25.80;;;;;;;;;;5058294;28;20036;-71
2023/04/22 11:02:50;;;;;;;28.48;24.40;;;;;;;;;;5059090;28;20032;-70
2023/04/22 11:05:23;;;;;;;29.15;23.52;;;;;;;;;;5037143;28;20040;-71
2023/04/22 11:07:49;;;;;;;30.25;25.13;;;;;;;;;;5057838;28;20127;-71
2023/04/22 11:10:33;;;;;;;31.30;24.00;;;;;;;;;;5058390;28;20286;-71
2023/04/22 11:12:59;;;;;;;30.75;25.20;;;;;;;;;;5057518;28;20280;-69
2023/04/22 11:15:26;;;;;;;32.58;25.65;;;;;;;;;;5056278;28;20051;-70
2023/04/22 11:17:53;;;;;;;31.80;24.98;;;;;;;;;;5060403;28;20036;-70
2023/04/22 11:20:18;;;;;;;33.10;25.20;;;;;;;;;;5060420;28;20036;-69
2023/04/22 11:22:45;;;;;;;33.70;26.23;;;;;;;;;;5041897;28;20093;-70
2023/04/22 11:25:10;;;;;;;34.42;26.45;;;;;;;;;;5054754;28;20051;-70
2023/04/22 11:27:38;;;;;;;34.28;27.10;;;;;;;;;;5055664;28;20085;-72
2023/04/22 11:30:17;;;;;;;32.53;27.05;;;;;;;;;;5053003;28;20036;-70
2023/04/22 11:32:44;;;;;;;36.15;27.52;;;;;;;;;;5058238;28;20032;-71
2023/04/22 11:35:11;;;;;;;34.65;27.27;;;;;;;;;;5026638;28;20151;-70
2023/04/22 11:37:47;;;;;;;35.97;28.20;;;;;;;;;;5059940;28;20029;-68
2023/04/22 11:40:32;;;;;;;35.95;27.63;;;;;;;;;;5019983;28;20505;-71
2023/04/22 11:42:58;;;;;;;40.85;28.48;;;;;;;;;;5056253;28;20033;-70
2023/04/22 11:45:26;;;;;;;38.92;29.33;;;;;;;;;;5056812;28;20036;-70
2023/04/22 11:47:54;;;;;;;38.20;29.10;;;;;;;;;;5052805;28;20040;-71
2023/04/22 11:50:21;;;;;;;40.05;28.85;;;;;;;;;;5047462;28;20036;-70
2023/04/22 11:52:49;;;;;;;41.55;30.17;;;;;;;;;;5055983;28;20074;-69
2023/04/22 11:55:20;;;;;;;39.17;28.92;;;;;;;;;;5054647;28;20097;-69
2023/04/22 11:57:53;;;;;;;41.92;28.77;;;;;;;;;;5053605;28;20511;-69
2023/04/22 12:00:18;;;;;;;41.25;28.83;;;;;;;;;;5059397;28;20058;-70
2023/04/22 12:02:53;;;;;;;40.97;29.00;;;;;;;;;;5035433;28;20281;-70
2023/04/22 12:05:32;;;;;;;41.22;28.35;;;;;;;;;;5034103;28;20284;-70
2023/04/22 12:07:59;;;;;;;42.05;29.02;;;;;;;;;;5034597;28;20044;-71
2023/04/22 12:10:24;;;;;;;38.63;26.90;;;;;;;;;;5022167;28;20051;-69
2023/04/22 12:12:49;;;;;;;42.10;28.58;;;;;;;;;;5032423;28;20032;-69
2023/04/22 12:15:15;;;;;;;39.92;28.77;;;;;;;;;;5020183;28;20048;-69
2023/04/22 12:17:43;;;;;;;45.53;29.95;;;;;;;;;;5028402;28;20044;-69
2023/04/22 12:20:12;;;;;;;45.22;31.77;;;;;;;;;;5029747;28;21429;-69
2023/04/22 12:22:38;;;;;;;52.00;34.38;;;;;;;;;;5027784;28;20040;-69
2023/04/22 12:25:03;;;;;;;48.50;32.88;;;;;;;;;;5033006;28;20964;-72
2023/04/22 12:27:29;;;;;;;56.83;35.03;;;;;;;;;;5029883;28;20273;-73
2023/04/22 12:29:55;;;;;;;58.25;36.30;;;;;;;;;;5036770;28;21939;-72
2023/04/22 12:32:21;;;;;;;58.03;36.95;;;;;;;;;;5041526;28;20164;-73
2023/04/22 12:34:47;;;;;;;58.70;37.10;;;;;;;;;;5035007;28;20039;-71
2023/04/22 12:37:12;;;;;;;58.70;37.15;;;;;;;;;;5038128;28;20583;-71
2023/04/22 12:39:37;;;;;;;63.22;37.72;;;;;;;;;;5021664;28;20142;-70
2023/04/22 12:42:07;;;;;;;66.57;40.10;;;;;;;;;;5033286;28;20529;-70
2023/04/22 12:44:32;;;;;;;63.15;38.08;;;;;;;;;;5039188;28;20453;-70
2023/04/22 12:46:58;;;;;;;62.90;38.75;;;;;;;;;;5013557;28;20184;-70
2023/04/22 12:49:23;;;;;;;63.72;37.88;;;;;;;;;;5015237;28;20082;-70
2023/04/22 12:51:49;;;;;;;63.20;37.08;;;;;;;;;;5036752;28;20112;-70
2023/04/22 12:54:14;;;;;;;61.58;37.28;;;;;;;;;;5018665;28;20087;-70
2023/04/22 12:56:41;;;;;;;63.47;37.70;;;;;;;;;;5012837;28;20129;-71
2023/04/22 12:59:07;;;;;;;62.70;38.65;;;;;;;;;;5036693;28;20598;-69
2023/04/22 13:01:35;;;;;;;67.15;37.70;;;;;;;;;;5013220;28;20258;-70
2023/04/22 13:04:00;;;;;;;60.63;35.88;;;;;;;;;;5036324;28;20765;-70
2023/04/22 13:06:26;;;;;;;58.33;34.15;;;;;;;;;;5036953;28;20028;-68
2023/04/22 13:08:54;;;;;;;66.85;34.72;;;;;;;;;;5034721;28;20558;-70
2023/04/22 13:11:20;;;;;;;64.35;35.63;;;;;;;;;;5017154;28;20037;-73
2023/04/22 13:13:45;;;;;;;62.35;34.38;;;;;;;;;;5034786;28;20177;-71
2023/04/22 13:16:11;;;;;;;59.38;34.67;;;;;;;;;;5018549;28;20284;-70
2023/04/22 13:18:36;;;;;;;55.95;33.95;;;;;;;;;;5035066;28;20218;-70
2023/04/22 13:21:02;;;;;;;57.97;31.98;;;;;;;;;;5039360;28;20024;-69
2023/04/22 13:23:27;;;;;;;51.25;30.85;;;;;;;;;;5013520;28;20132;-68
2023/04/22 13:25:52;;;;;;;53.85;30.33;;;;;;;;;;5036444;28;20139;-68
2023/04/22 13:28:17;;;;;;;56.47;31.52;;;;;;;;;;5023380;28;20040;-71
2023/04/22 13:30:43;;;;;;;55.42;31.42;;;;;;;;;;5040216;28;20492;-68
2023/04/22 13:33:08;;;;;;;56.05;31.15;;;;;;;;;;5036624;28;20529;-69
2023/04/22 13:35:36;;;;;;;52.38;29.65;;;;;;;;;;5037065;28;20041;-68
2023/04/22 13:38:01;;;;;;;48.78;29.95;;;;;;;;;;5036255;28;20734;-69
2023/04/22 13:40:27;;;;;;;56.45;29.90;;;;;;;;;;5038983;28;20392;-69
2023/04/22 13:42:53;;;;;;;52.83;31.23;;;;;;;;;;5036998;28;20043;-68
2023/04/22 13:45:18;;;;;;;49.38;29.98;;;;;;;;;;5037460;28;20491;-69
2023/04/22 13:47:44;;;;;;;48.35;29.50;;;;;;;;;;5036812;28;20028;-68
2023/04/22 13:50:09;;;;;;;51.97;28.70;;;;;;;;;;5037007;28;20157;-70
2023/04/22 13:52:35;;;;;;;50.63;28.58;;;;;;;;;;5015812;28;20036;-70
2023/04/22 13:55:02;;;;;;;54.67;29.15;;;;;;;;;;5023582;28;20476;-71
2023/04/22 13:57:29;;;;;;;50.85;28.58;;;;;;;;;;5034973;28;20682;-70
2023/04/22 13:59:55;;;;;;;48.17;28.70;;;;;;;;;;5022547;28;20230;-71
2023/04/22 14:02:20;;;;;;;54.53;29.88;;;;;;;;;;5037910;28;20051;-71
2023/04/22 14:04:45;;;;;;;52.05;28.38;;;;;;;;;;5026172;28;20241;-69
2023/04/22 14:07:13;;;;;;;48.72;28.25;;;;;;;;;;5039213;28;20290;-70
2023/04/22 14:09:39;;;;;;;51.75;27.70;;;;;;;;;;5040707;28;20086;-68
2023/04/22 14:12:05;;;;;;;51.30;28.02;;;;;;;;;;5038840;28;20040;-69